Time;durP1;ratioP1;P1;durP2;ratioP2;P2;SDS_P1;SDS_P2;PMS_P1;PMS_P2;Temp;Humidity;BMP_temperature;BMP_pressure;BME280_temperature;BME280_humidity;BME280_pressure;Samples;Min_cycle;Max_cycle;Signal;HPM_P1;HPM_P2
2021/09/29 00:00:21;;;;;;;13.00;8.45;;;;;;;;;;5069980;28;20017;-67
2021/09/29 00:02:48;;;;;;;10.57;8.05;;;;;;;;;;5070361;28;20076;-67
2021/09/29 00:07:18;;;;;;;12.40;9.05;;;;;;;;;;5110677;27;20404;-67
2021/09/29 00:09:44;;;;;;;13.38;8.80;;;;;;;;;;5111349;28;20377;-67
2021/09/29 00:14:16;;;;;;;12.38;8.38;;;;;;;;;;5070210;28;20939;-67
2021/09/29 00:17:54;;;;;;;14.90;8.90;;;;;;;;;;5111393;27;20769;-66
2021/09/29 00:22:07;;;;;;;12.13;7.90;;;;;;;;;;5110784;27;20317;-67
2021/09/29 00:24:34;;;;;;;13.98;8.98;;;;;;;;;;5109850;28;20092;-69
2021/09/29 00:27:00;;;;;;;13.85;10.32;;;;;;;;;;5111256;28;20127;-67
2021/09/29 00:29:26;;;;;;;13.90;9.50;;;;;;;;;;5110601;28;20416;-66
2021/09/29 00:31:52;;;;;;;13.15;9.60;;;;;;;;;;5109676;28;20499;-67
2021/09/29 00:37:57;;;;;;;14.25;10.25;;;;;;;;;;5111893;27;20502;-67
2021/09/29 00:40:23;;;;;;;13.35;9.40;;;;;;;;;;5111101;28;20028;-67
2021/09/29 00:42:49;;;;;;;15.70;10.00;;;;;;;;;;5110682;28;20070;-66
2021/09/29 00:45:16;;;;;;;14.32;9.80;;;;;;;;;;5111071;28;20111;-66
2021/09/29 00:47:42;;;;;;;13.40;8.88;;;;;;;;;;5111008;28;20099;-66
2021/09/29 00:50:09;;;;;;;13.48;9.70;;;;;;;;;;5109352;28;20383;-66
2021/09/29 00:52:38;;;;;;;15.38;10.48;;;;;;;;;;5109575;28;20024;-66
2021/09/29 00:55:54;;;;;;;14.73;10.23;;;;;;;;;;5070952;28;20387;-67
2021/09/29 00:58:50;;;;;;;17.58;11.45;;;;;;;;;;5111357;27;20810;-67
2021/09/29 01:03:13;;;;;;;16.25;11.95;;;;;;;;;;5111194;27;20508;-67
2021/09/29 01:05:42;;;;;;;16.80;12.07;;;;;;;;;;5111064;28;20026;-67
2021/09/29 01:13:17;;;;;;;18.52;12.90;;;;;;;;;;5111320;27;20408;-67
2021/09/29 01:18:07;;;;;;;18.65;12.18;;;;;;;;;;5111134;27;20536;-67
2021/09/29 01:22:25;;;;;;;16.05;12.05;;;;;;;;;;5111365;27;20512;-66
2021/09/29 01:25:49;;;;;;;15.65;11.13;;;;;;;;;;5110899;27;20450;-66
2021/09/29 01:28:20;;;;;;;12.98;9.65;;;;;;;;;;5109800;28;20036;-67
2021/09/29 01:30:46;;;;;;;14.93;10.55;;;;;;;;;;5111137;28;20032;-67
2021/09/29 01:33:12;;;;;;;14.63;10.70;;;;;;;;;;5110681;28;20031;-66
2021/09/29 01:35:38;;;;;;;14.15;9.82;;;;;;;;;;5109720;28;20392;-67
2021/09/29 01:39:50;;;;;;;15.55;9.23;;;;;;;;;;5110790;27;20669;-67
2021/09/29 01:42:17;;;;;;;13.45;9.55;;;;;;;;;;5111147;28;20039;-66
2021/09/29 01:44:43;;;;;;;16.85;10.93;;;;;;;;;;5111024;28;20048;-66
2021/09/29 01:49:11;;;;;;;14.63;10.38;;;;;;;;;;5111395;27;20843;-67
2021/09/29 01:51:39;;;;;;;18.92;10.95;;;;;;;;;;5109840;28;20111;-67
2021/09/29 01:54:06;;;;;;;15.80;10.55;;;;;;;;;;5110710;28;20021;-67
2021/09/29 01:56:33;;;;;;;16.30;12.13;;;;;;;;;;5109627;28;20050;-67
2021/09/29 01:58:59;;;;;;;17.95;11.50;;;;;;;;;;5110547;28;20024;-67
2021/09/29 02:02:30;;;;;;;16.33;10.02;;;;;;;;;;5070984;28;20411;-67
2021/09/29 02:04:56;;;;;;;12.50;8.50;;;;;;;;;;5070552;28;20029;-67
2021/09/29 02:07:22;;;;;;;14.65;9.82;;;;;;;;;;5068771;28;20466;-67
2021/09/29 02:09:50;;;;;;;12.73;8.95;;;;;;;;;;5070455;28;20385;-67
2021/09/29 02:12:50;;;;;;;13.85;9.77;;;;;;;;;;5111537;27;20453;-67
2021/09/29 02:15:16;;;;;;;14.77;9.80;;;;;;;;;;5109384;28;20472;-67
2021/09/29 02:17:43;;;;;;;14.68;10.32;;;;;;;;;;5111131;28;20028;-67
2021/09/29 02:22:09;;;;;;;16.55;10.43;;;;;;;;;;5110822;27;20408;-67
2021/09/29 02:24:35;;;;;;;15.18;9.55;;;;;;;;;;5111116;28;20484;-67
2021/09/29 02:32:06;;;;;;;16.38;10.63;;;;;;;;;;5070926;28;20451;-67
2021/09/29 02:34:32;;;;;;;13.32;9.30;;;;;;;;;;5070214;28;20028;-67
2021/09/29 02:37:39;;;;;;;15.35;9.65;;;;;;;;;;5111176;27;20385;-67
2021/09/29 02:40:31;;;;;;;14.52;9.75;;;;;;;;;;5111287;27;20403;-67
2021/09/29 02:44:13;;;;;;;12.40;9.73;;;;;;;;;;5071348;28;20423;-67
2021/09/29 02:47:20;;;;;;;13.45;8.82;;;;;;;;;;5111648;27;20836;-67
2021/09/29 02:49:46;;;;;;;14.50;9.30;;;;;;;;;;5110716;28;20138;-67
2021/09/29 02:53:21;;;;;;;15.32;9.82;;;;;;;;;;5070764;28;20847;-68
2021/09/29 02:55:48;;;;;;;13.02;7.95;;;;;;;;;;5069794;28;20044;-68
2021/09/29 02:58:26;;;;;;;13.30;8.68;;;;;;;;;;5111089;27;20522;-68
2021/09/29 03:02:11;;;;;;;12.30;8.15;;;;;;;;;;5111456;27;20450;-67
2021/09/29 03:04:37;;;;;;;14.27;8.82;;;;;;;;;;5109395;28;20035;-69
2021/09/29 03:07:04;;;;;;;12.10;8.68;;;;;;;;;;5111054;28;20519;-69
2021/09/29 03:09:30;;;;;;;13.18;8.52;;;;;;;;;;5110660;28;20426;-69
2021/09/29 03:11:56;;;;;;;14.52;8.13;;;;;;;;;;5111173;28;20079;-68
2021/09/29 03:17:13;;;;;;;11.05;7.75;;;;;;;;;;5111207;27;20938;-67
2021/09/29 03:19:39;;;;;;;12.85;7.47;;;;;;;;;;5111031;28;20481;-67
2021/09/29 03:22:05;;;;;;;13.55;7.30;;;;;;;;;;5111105;28;20024;-67
2021/09/29 03:24:32;;;;;;;14.00;7.28;;;;;;;;;;5110677;28;20431;-67
2021/09/29 03:26:58;;;;;;;14.40;9.32;;;;;;;;;;5110965;28;20334;-67
2021/09/29 03:29:24;;;;;;;15.48;9.20;;;;;;;;;;5126706;28;20027;-67
2021/09/29 03:32:23;;;;;;;14.98;9.82;;;;;;;;;;5110876;27;20396;-67
2021/09/29 03:35:33;;;;;;;16.35;9.15;;;;;;;;;;5111486;27;20916;-67
2021/09/29 03:37:59;;;;;;;13.68;9.30;;;;;;;;;;5110754;28;20037;-67
2021/09/29 03:40:25;;;;;;;18.08;9.48;;;;;;;;;;5109714;28;20127;-67
2021/09/29 03:42:52;;;;;;;11.50;7.95;;;;;;;;;;5110990;28;20423;-67
2021/09/29 03:45:18;;;;;;;14.15;8.02;;;;;;;;;;5110590;28;20023;-67
2021/09/29 03:47:44;;;;;;;10.10;7.35;;;;;;;;;;5110780;28;20042;-67
2021/09/29 03:50:11;;;;;;;11.48;7.00;;;;;;;;;;5110865;28;20030;-67
2021/09/29 03:52:38;;;;;;;15.00;8.98;;;;;;;;;;5109141;28;20020;-67
2021/09/29 03:55:04;;;;;;;12.07;7.28;;;;;;;;;;5109454;28;20171;-67
2021/09/29 03:57:31;;;;;;;13.25;8.38;;;;;;;;;;5109443;28;20024;-67
2021/09/29 04:02:45;;;;;;;10.60;6.53;;;;;;;;;;5111201;27;20397;-67
2021/09/29 04:07:25;;;;;;;12.23;6.95;;;;;;;;;;5110761;27;20521;-67
2021/09/29 04:12:47;;;;;;;13.02;7.60;;;;;;;;;;5108657;27;20826;-70
2021/09/29 04:15:51;;;;;;;14.35;7.10;;;;;;;;;;5111802;27;20458;-69
2021/09/29 04:18:17;;;;;;;10.70;7.38;;;;;;;;;;5111278;28;20385;-70
2021/09/29 04:20:43;;;;;;;10.95;7.95;;;;;;;;;;5109433;28;20050;-68
2021/09/29 04:24:44;;;;;;;9.77;6.32;;;;;;;;;;5111861;27;20508;-69
2021/09/29 04:27:11;;;;;;;12.35;6.75;;;;;;;;;;5110798;28;20039;-70
2021/09/29 04:29:38;;;;;;;11.77;7.47;;;;;;;;;;5111719;28;20067;-69
2021/09/29 04:33:00;;;;;;;11.02;6.75;;;;;;;;;;5111867;27;20389;-67
2021/09/29 04:35:26;;;;;;;14.07;7.68;;;;;;;;;;5110801;28;20027;-68
2021/09/29 04:37:53;;;;;;;10.40;6.45;;;;;;;;;;5111066;28;20025;-68
2021/09/29 04:40:19;;;;;;;11.73;7.97;;;;;;;;;;5111002;28;20019;-68
2021/09/29 04:42:45;;;;;;;15.77;8.13;;;;;;;;;;5110709;28;20031;-69
2021/09/29 04:46:07;;;;;;;11.93;7.10;;;;;;;;;;5111524;27;20409;-67
2021/09/29 04:52:26;;;;;;;10.73;7.45;;;;;;;;;;5111122;27;20812;-67
2021/09/29 04:56:29;;;;;;;12.13;7.40;;;;;;;;;;5110871;27;20423;-67
2021/09/29 04:58:55;;;;;;;13.23;8.23;;;;;;;;;;5109849;28;20055;-69
2021/09/29 05:01:23;;;;;;;9.93;6.82;;;;;;;;;;5111253;28;20036;-69
2021/09/29 05:04:45;;;;;;;12.68;6.68;;;;;;;;;;5111542;27;20397;-70
2021/09/29 05:07:17;;;;;;;9.60;6.30;;;;;;;;;;5111333;28;20075;-68
2021/09/29 05:09:43;;;;;;;10.02;6.65;;;;;;;;;;5110790;28;20023;-67
2021/09/29 05:15:11;;;;;;;667.20;610.88;;;;;;;;;;5111186;27;20749;-70
2021/09/29 05:17:38;;;;;;;212.88;192.27;;;;;;;;;;5107861;28;20472;-73
2021/09/29 05:21:15;;;;;;;63.35;54.53;;;;;;;;;;5059946;28;20397;-72
2021/09/29 05:23:41;;;;;;;11.73;7.63;;;;;;;;;;5047054;28;20017;-72
2021/09/29 05:26:08;;;;;;;269.27;240.18;;;;;;;;;;5041796;28;20389;-69
2021/09/29 05:28:38;;;;;;;380.90;348.25;;;;;;;;;;5046553;28;20489;-69
2021/09/29 05:36:47;;;;;;;14.85;10.40;;;;;;;;;;5091049;27;20417;-72
2021/09/29 05:39:57;;;;;;;15.20;9.32;;;;;;;;;;5109367;27;20747;-71
2021/09/29 05:44:43;;;;;;;14.02;9.50;;;;;;;;;;5064869;28;20954;-72
2021/09/29 05:47:10;;;;;;;14.00;9.50;;;;;;;;;;5065342;28;20029;-73
2021/09/29 05:49:36;;;;;;;17.10;9.57;;;;;;;;;;5065466;28;20024;-73
2021/09/29 05:54:33;;;;;;;16.45;10.70;;;;;;;;;;5108556;27;20120;-72
2021/09/29 05:56:59;;;;;;;12.45;8.43;;;;;;;;;;5088064;28;20066;-74
2021/09/29 05:59:25;;;;;;;13.77;9.73;;;;;;;;;;5083494;28;20020;-71
2021/09/29 06:03:50;;;;;;;14.35;9.75;;;;;;;;;;5108150;27;20437;-76
2021/09/29 06:06:16;;;;;;;16.65;9.30;;;;;;;;;;5108587;28;20065;-82
2021/09/29 06:08:43;;;;;;;14.05;8.55;;;;;;;;;;5110548;28;20034;-76
2021/09/29 06:11:09;;;;;;;12.70;9.13;;;;;;;;;;5109898;28;20488;-79
2021/09/29 06:13:35;;;;;;;11.55;8.55;;;;;;;;;;5112816;28;20053;-83
2021/09/29 06:23:45;;;;;;;11.98;7.97;;;;;;;;;;5110809;27;20400;-79
2021/09/29 06:26:11;;;;;;;12.82;8.18;;;;;;;;;;5111898;28;20089;-80
2021/09/29 06:29:59;;;;;;;11.88;8.07;;;;;;;;;;5111278;27;20397;-81
2021/09/29 06:32:25;;;;;;;14.80;8.82;;;;;;;;;;5110781;28;20027;-81
2021/09/29 06:36:55;;;;;;;12.93;8.80;;;;;;;;;;5112231;27;20393;-81
2021/09/29 06:40:28;;;;;;;11.82;7.85;;;;;;;;;;5111623;27;20381;-81
2021/09/29 06:42:54;;;;;;;11.85;8.43;;;;;;;;;;5111182;28;20020;-74
2021/09/29 06:45:21;;;;;;;12.25;8.00;;;;;;;;;;5109885;28;20024;-74
2021/09/29 06:47:49;;;;;;;12.55;7.60;;;;;;;;;;5108119;28;20488;-70
2021/09/29 06:50:17;;;;;;;10.27;7.43;;;;;;;;;;5110383;28;20024;-71
2021/09/29 06:52:43;;;;;;;10.07;6.78;;;;;;;;;;5110540;28;20369;-71
2021/09/29 06:55:09;;;;;;;11.55;7.45;;;;;;;;;;5105014;28;20537;-71
2021/09/29 06:59:14;;;;;;;15.57;10.23;;;;;;;;;;5110121;27;20397;-72
2021/09/29 07:01:40;;;;;;;18.45;14.40;;;;;;;;;;5108999;28;20034;-73
2021/09/29 07:04:37;;;;;;;21.30;15.82;;;;;;;;;;5108087;27;20408;-73
2021/09/29 07:07:53;;;;;;;14.70;9.55;;;;;;;;;;5110177;27;20396;-70
2021/09/29 07:10:22;;;;;;;13.48;9.15;;;;;;;;;;5109829;28;20053;-71
2021/09/29 07:16:25;;;;;;;15.77;9.57;;;;;;;;;;5109941;27;20442;-72
2021/09/29 07:18:53;;;;;;;14.40;8.13;;;;;;;;;;5110297;28;20036;-70
2021/09/29 07:23:59;;;;;;;13.10;7.57;;;;;;;;;;5104489;27;20401;-73
2021/09/29 07:26:25;;;;;;;10.98;7.22;;;;;;;;;;5077009;28;20035;-72
2021/09/29 07:28:51;;;;;;;13.27;7.88;;;;;;;;;;5068449;28;20420;-73
2021/09/29 07:31:18;;;;;;;13.35;7.65;;;;;;;;;;5068682;28;20029;-72
2021/09/29 07:33:45;;;;;;;14.15;8.05;;;;;;;;;;5068703;28;20507;-71
2021/09/29 07:36:11;;;;;;;12.88;7.03;;;;;;;;;;5068319;28;20055;-71
2021/09/29 07:38:39;;;;;;;10.10;6.65;;;;;;;;;;5087978;28;20421;-78
2021/09/29 07:41:05;;;;;;;11.15;7.03;;;;;;;;;;5090989;28;20112;-81
2021/09/29 07:43:31;;;;;;;11.73;6.68;;;;;;;;;;5092484;28;20037;-83
2021/09/29 07:45:58;;;;;;;11.48;6.47;;;;;;;;;;5091316;28;20104;-77
2021/09/29 07:48:46;;;;;;;9.90;6.45;;;;;;;;;;5113606;27;20377;-72
2021/09/29 07:51:16;;;;;;;10.68;5.05;;;;;;;;;;5110819;28;20456;-74
2021/09/29 07:53:42;;;;;;;9.32;5.75;;;;;;;;;;5107734;28;20020;-75
2021/09/29 07:56:09;;;;;;;7.68;4.47;;;;;;;;;;5109369;28;20357;-71
2021/09/29 07:58:36;;;;;;;9.48;4.53;;;;;;;;;;5107613;28;20012;-70
2021/09/29 08:01:02;;;;;;;7.97;4.13;;;;;;;;;;5104975;28;20024;-72
2021/09/29 08:03:28;;;;;;;8.63;4.65;;;;;;;;;;5105710;28;20042;-69
2021/09/29 08:06:00;;;;;;;8.73;4.95;;;;;;;;;;5106678;28;20023;-70
2021/09/29 08:08:26;;;;;;;9.45;4.65;;;;;;;;;;5106941;28;20035;-70
2021/09/29 08:10:52;;;;;;;6.28;4.22;;;;;;;;;;5105161;28;20388;-72
2021/09/29 08:13:18;;;;;;;10.90;4.78;;;;;;;;;;5104922;28;20020;-73
2021/09/29 08:15:45;;;;;;;7.30;3.83;;;;;;;;;;5105435;28;20468;-80
2021/09/29 08:22:25;;;;;;;6.68;3.92;;;;;;;;;;5109124;27;20509;-75
2021/09/29 08:27:49;;;;;;;7.40;4.63;;;;;;;;;;5108552;28;20495;-74
2021/09/29 08:31:29;;;;;;;6.78;4.22;;;;;;;;;;5108684;27;20892;-77
2021/09/29 08:37:49;;;;;;;8.30;4.60;;;;;;;;;;5110342;27;20424;-77
2021/09/29 08:44:21;;;;;;;8.05;4.63;;;;;;;;;;5108639;27;20902;-77
2021/09/29 08:57:25;;;;;;;8.02;3.40;;;;;;;;;;5072044;28;20384;-71
2021/09/29 09:19:27;;;;;;;7.30;3.50;;;;;;;;;;5107629;27;20384;-70
2021/09/29 09:21:55;;;;;;;3.95;2.40;;;;;;;;;;5108271;28;20134;-71
2021/09/29 09:24:23;;;;;;;6.18;2.60;;;;;;;;;;5108914;28;20073;-74
2021/09/29 09:27:09;;;;;;;7.13;3.05;;;;;;;;;;5105196;28;20396;-71
2021/09/29 09:29:45;;;;;;;6.30;3.13;;;;;;;;;;5097293;28;20035;-72
2021/09/29 09:32:13;;;;;;;5.78;2.85;;;;;;;;;;5088175;28;20489;-69
2021/09/29 09:34:39;;;;;;;6.22;2.83;;;;;;;;;;5083763;28;20024;-70
2021/09/29 09:37:09;;;;;;;4.90;2.80;;;;;;;;;;5087550;28;20024;-71
2021/09/29 09:39:35;;;;;;;5.68;2.50;;;;;;;;;;5087773;28;20038;-71
2021/09/29 09:42:01;;;;;;;4.90;2.40;;;;;;;;;;5105459;28;20039;-71
2021/09/29 09:45:29;;;;;;;4.32;2.25;;;;;;;;;;5108080;27;20401;-71
2021/09/29 09:47:55;;;;;;;6.43;3.08;;;;;;;;;;5109996;28;20103;-69
2021/09/29 09:50:25;;;;;;;4.93;2.47;;;;;;;;;;5109423;28;20361;-69
2021/09/29 09:52:51;;;;;;;4.57;2.70;;;;;;;;;;5110253;28;20031;-71
2021/09/29 09:55:19;;;;;;;7.13;2.50;;;;;;;;;;5102652;28;20028;-73
2021/09/29 09:57:51;;;;;;;4.53;2.83;;;;;;;;;;5096966;28;20055;-72
2021/09/29 10:00:20;;;;;;;4.85;2.72;;;;;;;;;;5089468;28;20473;-72
2021/09/29 10:04:58;;;;;;;4.90;2.75;;;;;;;;;;5109452;27;20835;-70
2021/09/29 10:07:24;;;;;;;4.35;2.42;;;;;;;;;;5109197;28;20028;-70
2021/09/29 10:09:59;;;;;;;4.85;2.47;;;;;;;;;;5112283;28;20502;-71
2021/09/29 10:27:58;;;;;;;5.97;2.78;;;;;;;;;;5109538;27;20458;-70
2021/09/29 10:32:39;;;;;;;5.95;3.13;;;;;;;;;;5108016;27;20393;-69
2021/09/29 10:35:23;;;;;;;5.15;2.70;;;;;;;;;;5109460;28;20028;-72
2021/09/29 10:40:55;;;;;;;6.53;3.63;;;;;;;;;;5109392;28;20059;-68
2021/09/29 10:44:08;;;;;;;9.00;3.10;;;;;;;;;;5108501;28;20028;-74
2021/09/29 11:10:52;;;;;;;7.55;3.85;;;;;;;;;;5066664;28;20037;-72
2021/09/29 11:29:41;;;;;;;7.13;3.08;;;;;;;;;;5065655;28;20067;-69
2021/09/29 11:35:42;;;;;;;6.57;3.60;;;;;;;;;;5065810;28;20025;-68
2021/09/29 12:10:05;;;;;;;6.63;3.42;;;;;;;;;;5110444;28;20523;-67
2021/09/29 12:12:35;;;;;;;5.63;3.22;;;;;;;;;;5107740;28;20024;-67
2021/09/29 12:15:42;;;;;;;9.27;3.80;;;;;;;;;;5111086;27;20505;-68
2021/09/29 12:18:12;;;;;;;8.40;3.58;;;;;;;;;;5110748;28;20131;-68
2021/09/29 12:22:07;;;;;;;23.83;10.80;;;;;;;;;;5111060;27;20439;-66
2021/09/29 12:24:50;;;;;;;12.52;6.80;;;;;;;;;;5111073;28;20105;-68
2021/09/29 12:36:28;;;;;;;6.05;3.40;;;;;;;;;;5090664;28;20040;-68
2021/09/29 12:38:55;;;;;;;6.20;3.40;;;;;;;;;;5090257;28;20017;-67
2021/09/29 12:42:05;;;;;;;89.63;40.63;;;;;;;;;;5131686;27;20308;-67
2021/09/29 12:44:31;;;;;;;7.35;3.85;;;;;;;;;;5110587;28;20085;-68
2021/09/29 12:47:12;;;;;;;22.00;11.13;;;;;;;;;;5110524;28;20424;-68
2021/09/29 12:49:39;;;;;;;8.00;4.15;;;;;;;;;;5111445;28;20384;-69
2021/09/29 12:52:12;;;;;;;9.15;3.10;;;;;;;;;;5110674;28;20020;-69
2021/09/29 12:54:48;;;;;;;6.43;3.35;;;;;;;;;;5108485;28;20407;-69
2021/09/29 12:59:27;;;;;;;9.23;5.60;;;;;;;;;;5110763;27;20509;-69
2021/09/29 13:01:53;;;;;;;13.48;7.22;;;;;;;;;;5108985;28;20039;-68
2021/09/29 13:05:09;;;;;;;5.90;3.30;;;;;;;;;;5070412;28;20399;-69
2021/09/29 13:07:36;;;;;;;5.55;3.42;;;;;;;;;;5070090;28;20384;-68
2021/09/29 13:10:02;;;;;;;7.70;3.25;;;;;;;;;;5070679;28;20104;-69
2021/09/29 13:12:30;;;;;;;6.20;3.22;;;;;;;;;;5070982;28;20044;-68
2021/09/29 13:15:04;;;;;;;6.22;3.40;;;;;;;;;;5070544;28;20411;-69
2021/09/29 13:17:30;;;;;;;5.03;2.67;;;;;;;;;;5070719;28;20082;-69
2021/09/29 13:20:04;;;;;;;4.20;2.97;;;;;;;;;;5071110;28;20100;-68
2021/09/29 13:22:33;;;;;;;6.75;3.15;;;;;;;;;;5070440;28;20025;-69
2021/09/29 13:25:16;;;;;;;5.68;3.17;;;;;;;;;;5070859;28;20024;-69
2021/09/29 13:36:35;;;;;;;7.85;3.63;;;;;;;;;;5111104;28;20039;-69
2021/09/29 13:39:02;;;;;;;6.00;3.08;;;;;;;;;;5111254;28;20030;-68
2021/09/29 13:41:28;;;;;;;9.35;4.93;;;;;;;;;;5092832;28;20020;-69
2021/09/29 13:43:55;;;;;;;5.18;2.90;;;;;;;;;;5110670;28;20484;-69
2021/09/29 13:46:21;;;;;;;4.53;2.78;;;;;;;;;;5111061;28;20035;-69
2021/09/29 13:48:50;;;;;;;5.18;2.97;;;;;;;;;;5110761;28;20065;-69
2021/09/29 13:51:16;;;;;;;4.85;2.63;;;;;;;;;;5110378;28;20491;-69
2021/09/29 13:53:43;;;;;;;6.50;3.17;;;;;;;;;;5110726;28;20218;-69
2021/09/29 13:56:11;;;;;;;8.77;3.28;;;;;;;;;;5111077;28;20027;-68
2021/09/29 14:28:46;;;;;;;8.45;4.78;;;;;;;;;;5070718;28;20032;-69
2021/09/29 14:31:19;;;;;;;6.88;3.72;;;;;;;;;;5070734;28;20048;-69
2021/09/29 14:33:48;;;;;;;8.18;4.28;;;;;;;;;;5070079;28;20025;-69
2021/09/29 14:38:03;;;;;;;6.90;4.60;;;;;;;;;;5111474;27;20500;-70
2021/09/29 14:40:29;;;;;;;8.30;4.20;;;;;;;;;;5110825;28;20024;-69
2021/09/29 14:42:55;;;;;;;6.95;4.05;;;;;;;;;;5109825;28;20027;-69
2021/09/29 14:45:21;;;;;;;5.88;3.38;;;;;;;;;;5111352;28;20059;-68
2021/09/29 14:47:48;;;;;;;9.30;3.92;;;;;;;;;;5109386;28;20502;-69
2021/09/29 14:50:15;;;;;;;5.55;3.67;;;;;;;;;;5111243;28;20074;-69
2021/09/29 14:52:41;;;;;;;6.25;3.63;;;;;;;;;;5110496;28;20028;-69
2021/09/29 14:55:08;;;;;;;7.53;3.88;;;;;;;;;;5111445;28;20027;-69
2021/09/29 14:58:09;;;;;;;9.35;4.03;;;;;;;;;;5111223;27;20400;-69
2021/09/29 15:00:35;;;;;;;10.32;4.18;;;;;;;;;;5110827;28;20387;-68
2021/09/29 15:03:01;;;;;;;8.02;4.50;;;;;;;;;;5111416;28;20085;-68
2021/09/29 15:05:28;;;;;;;7.85;4.57;;;;;;;;;;5111469;28;20046;-67
2021/09/29 15:08:48;;;;;;;8.43;3.78;;;;;;;;;;5111236;27;20420;-70
2021/09/29 15:11:15;;;;;;;7.15;3.85;;;;;;;;;;5109968;28;20031;-69
2021/09/29 15:13:46;;;;;;;7.47;4.25;;;;;;;;;;5111119;28;20047;-68
2021/09/29 15:16:27;;;;;;;10.38;4.53;;;;;;;;;;5110826;28;20034;-69
2021/09/29 15:19:24;;;;;;;9.63;4.78;;;;;;;;;;5111130;28;20020;-68
2021/09/29 15:31:58;;;;;;;6.72;4.18;;;;;;;;;;5111100;28;20023;-69
2021/09/29 15:52:25;;;;;;;7.60;4.55;;;;;;;;;;5111155;28;20414;-68
2021/09/29 15:56:12;;;;;;;8.63;4.40;;;;;;;;;;5111280;27;20759;-69
2021/09/29 16:01:35;;;;;;;10.23;4.80;;;;;;;;;;5106331;28;20078;-69
2021/09/29 16:04:27;;;;;;;8.75;5.15;;;;;;;;;;5111012;27;20520;-69
2021/09/29 16:16:03;;;;;;;9.77;4.47;;;;;;;;;;5111249;28;20085;-68
2021/09/29 16:30:39;;;;;;;9.30;4.20;;;;;;;;;;5111448;28;20031;-69
2021/09/29 16:35:37;;;;;;;6.82;4.20;;;;;;;;;;5111120;28;20024;-68
2021/09/29 16:38:32;;;;;;;12.00;4.00;;;;;;;;;;5111581;27;20385;-69
2021/09/29 16:43:00;;;;;;;6.60;3.63;;;;;;;;;;5112048;27;20876;-69
2021/09/29 16:46:59;;;;;;;6.82;4.30;;;;;;;;;;5110994;27;20384;-69
2021/09/29 16:49:27;;;;;;;8.80;4.47;;;;;;;;;;5111267;28;20047;-69
2021/09/29 16:52:40;;;;;;;9.75;4.70;;;;;;;;;;5111174;27;20127;-69
2021/09/29 16:55:09;;;;;;;8.38;4.53;;;;;;;;;;5111308;28;20024;-68
2021/09/29 16:57:40;;;;;;;7.47;4.22;;;;;;;;;;5111172;28;20495;-69
2021/09/29 17:01:57;;;;;;;7.53;3.90;;;;;;;;;;5131881;27;20787;-69
2021/09/29 17:04:24;;;;;;;7.28;4.28;;;;;;;;;;5111289;28;20035;-69
2021/09/29 17:06:51;;;;;;;8.63;4.90;;;;;;;;;;5110908;28;20472;-69
2021/09/29 17:09:17;;;;;;;10.88;5.30;;;;;;;;;;5111473;28;20422;-69
2021/09/29 17:11:43;;;;;;;9.82;5.00;;;;;;;;;;5110973;28;20024;-69
2021/09/29 17:14:45;;;;;;;8.45;4.75;;;;;;;;;;5111334;27;20388;-67
2021/09/29 17:17:12;;;;;;;9.32;6.05;;;;;;;;;;5111264;28;20020;-69
2021/09/29 17:19:38;;;;;;;12.25;5.55;;;;;;;;;;5111117;28;20054;-69
2021/09/29 17:22:17;;;;;;;10.43;5.22;;;;;;;;;;5110662;27;20393;-68
2021/09/29 17:24:44;;;;;;;9.60;5.00;;;;;;;;;;5111390;28;20027;-68
2021/09/29 17:27:14;;;;;;;11.35;5.63;;;;;;;;;;5111172;28;20365;-68
2021/09/29 17:29:42;;;;;;;8.73;5.45;;;;;;;;;;5110843;28;20026;-68
2021/09/29 17:32:14;;;;;;;9.05;5.22;;;;;;;;;;5111060;28;20044;-68
2021/09/29 17:53:08;;;;;;;10.57;6.05;;;;;;;;;;5111281;27;20753;-69
2021/09/29 17:55:36;;;;;;;10.85;6.70;;;;;;;;;;5111493;28;20392;-69
2021/09/29 17:58:03;;;;;;;9.68;6.00;;;;;;;;;;5111294;28;20020;-69
2021/09/29 18:00:33;;;;;;;9.52;6.22;;;;;;;;;;5109916;28;20075;-69
2021/09/29 18:03:50;;;;;;;13.27;6.07;;;;;;;;;;5090612;28;20319;-69
2021/09/29 18:06:21;;;;;;;11.93;6.95;;;;;;;;;;5090871;28;20063;-69
2021/09/29 18:10:51;;;;;;;12.85;6.97;;;;;;;;;;5111287;27;20401;-69
2021/09/29 18:16:25;;;;;;;10.95;6.38;;;;;;;;;;5070721;28;20477;-68
2021/09/29 18:18:51;;;;;;;12.23;6.32;;;;;;;;;;5070302;28;20040;-68
2021/09/29 18:22:37;;;;;;;9.75;6.03;;;;;;;;;;5111349;27;20397;-67
2021/09/29 18:25:05;;;;;;;9.32;5.72;;;;;;;;;;5110812;28;20480;-69
2021/09/29 18:27:31;;;;;;;9.63;6.35;;;;;;;;;;5110983;28;20107;-69
2021/09/29 18:29:59;;;;;;;10.05;6.22;;;;;;;;;;5109808;28;20028;-69
2021/09/29 18:33:03;;;;;;;9.82;6.10;;;;;;;;;;5110895;27;20393;-68
2021/09/29 18:35:33;;;;;;;11.10;6.82;;;;;;;;;;5111168;28;20024;-69
2021/09/29 18:38:03;;;;;;;13.00;6.30;;;;;;;;;;5109640;28;20391;-68
2021/09/29 18:42:29;;;;;;;11.25;7.35;;;;;;;;;;5111600;27;20517;-69
2021/09/29 18:44:55;;;;;;;11.77;6.28;;;;;;;;;;5110873;28;20070;-67
2021/09/29 18:47:23;;;;;;;10.55;6.60;;;;;;;;;;5109959;28;20077;-68
2021/09/29 18:50:46;;;;;;;10.05;6.35;;;;;;;;;;5111390;27;20512;-67
2021/09/29 18:57:41;;;;;;;10.60;7.00;;;;;;;;;;5111421;27;20373;-69
2021/09/29 19:04:07;;;;;;;11.77;6.32;;;;;;;;;;5111298;27;20477;-69
2021/09/29 19:07:55;;;;;;;10.98;6.32;;;;;;;;;;5111199;27;20769;-68
2021/09/29 19:10:21;;;;;;;10.70;6.65;;;;;;;;;;5111211;28;20036;-67
2021/09/29 19:15:12;;;;;;;12.43;6.05;;;;;;;;;;5110868;27;20819;-68
2021/09/29 19:17:40;;;;;;;8.55;6.20;;;;;;;;;;5111277;28;20027;-69
2021/09/29 19:22:13;;;;;;;12.93;7.38;;;;;;;;;;5111865;27;20941;-69
2021/09/29 19:24:39;;;;;;;11.70;6.13;;;;;;;;;;5110669;28;20026;-69
2021/09/29 19:27:19;;;;;;;15.25;6.90;;;;;;;;;;5068934;28;20387;-69
2021/09/29 19:29:45;;;;;;;11.43;6.35;;;;;;;;;;5070360;28;20392;-69
2021/09/29 19:32:11;;;;;;;11.73;7.15;;;;;;;;;;5070654;28;20028;-69
2021/09/29 19:34:37;;;;;;;10.90;7.05;;;;;;;;;;5068987;28;20144;-69
2021/09/29 19:37:04;;;;;;;10.40;6.45;;;;;;;;;;5070534;28;20029;-69
2021/09/29 19:39:30;;;;;;;12.32;7.07;;;;;;;;;;5070464;28;20508;-69
2021/09/29 19:45:56;;;;;;;14.43;7.45;;;;;;;;;;5109155;27;20897;-69
2021/09/29 19:50:24;;;;;;;15.32;7.35;;;;;;;;;;5129294;27;20317;-69
2021/09/29 20:11:37;;;;;;;11.02;6.95;;;;;;;;;;5111656;27;20392;-68
2021/09/29 20:14:03;;;;;;;12.02;6.97;;;;;;;;;;5111273;28;20538;-69
2021/09/29 20:16:29;;;;;;;11.73;7.43;;;;;;;;;;5110854;28;20089;-69
2021/09/29 20:18:57;;;;;;;13.40;7.22;;;;;;;;;;5111268;28;20020;-68
2021/09/29 20:23:32;;;;;;;10.60;7.10;;;;;;;;;;5111108;27;20388;-68
2021/09/29 20:25:58;;;;;;;13.13;7.20;;;;;;;;;;5111320;28;20032;-68
2021/09/29 20:29:23;;;;;;;9.13;6.05;;;;;;;;;;5111977;27;20416;-69
2021/09/29 20:31:50;;;;;;;12.20;7.40;;;;;;;;;;5110847;28;20039;-69
2021/09/29 20:34:37;;;;;;;11.38;6.10;;;;;;;;;;5111196;28;20051;-67
2021/09/29 20:46:18;;;;;;;9.90;6.32;;;;;;;;;;5110927;27;20508;-69
2021/09/29 20:49:51;;;;;;;10.10;6.22;;;;;;;;;;5131768;27;20591;-67
2021/09/29 20:52:17;;;;;;;11.20;6.82;;;;;;;;;;5131371;28;20027;-68
2021/09/29 20:54:44;;;;;;;11.60;6.88;;;;;;;;;;5131769;28;20030;-68
2021/09/29 20:58:12;;;;;;;11.57;6.75;;;;;;;;;;5111476;27;20416;-69
2021/09/29 21:03:31;;;;;;;11.70;7.38;;;;;;;;;;5111258;27;20409;-69
2021/09/29 21:05:57;;;;;;;9.32;6.30;;;;;;;;;;5109598;28;20435;-69
2021/09/29 21:08:31;;;;;;;11.98;6.85;;;;;;;;;;5111652;28;20020;-69
2021/09/29 21:11:02;;;;;;;11.23;7.55;;;;;;;;;;5109898;28;20034;-69
2021/09/29 21:13:38;;;;;;;10.70;6.82;;;;;;;;;;5110767;28;20098;-69
2021/09/29 21:20:04;;;;;;;12.52;6.40;;;;;;;;;;5070799;28;20391;-70
2021/09/29 21:22:30;;;;;;;16.42;7.63;;;;;;;;;;5069398;28;20547;-70
2021/09/29 21:26:43;;;;;;;10.35;6.57;;;;;;;;;;5111395;27;20373;-69
2021/09/29 21:29:10;;;;;;;11.65;7.55;;;;;;;;;;5111208;28;20023;-70
2021/09/29 21:31:36;;;;;;;10.38;6.57;;;;;;;;;;5111216;28;20027;-69
2021/09/29 21:35:12;;;;;;;12.98;8.15;;;;;;;;;;5070549;28;20395;-69
2021/09/29 22:01:30;;;;;;;10.65;6.03;;;;;;;;;;5111553;27;20381;-69
2021/09/29 23:07:19;;;;;;;13.98;7.00;;;;;;;;;;5110893;28;20027;-67
2021/09/29 23:10:01;;;;;;;13.13;6.88;;;;;;;;;;5173455;27;20163;-67
2021/09/29 23:33:31;;;;;;;11.05;6.35;;;;;;;;;;5111612;27;20388;-69
2021/09/29 23:35:57;;;;;;;11.52;6.22;;;;;;;;;;5111505;28;20059;-69
2021/09/29 23:38:23;;;;;;;11.52;6.40;;;;;;;;;;5111187;28;20541;-69
2021/09/29 23:41:09;;;;;;;13.35;7.65;;;;;;;;;;5110707;28;20388;-67
2021/09/29 23:43:36;;;;;;;12.60;7.57;;;;;;;;;;5111041;28;20020;-67
2021/09/29 23:46:03;;;;;;;11.43;7.05;;;;;;;;;;5111144;28;20022;-67
2021/09/29 23:48:29;;;;;;;12.85;7.35;;;;;;;;;;5110632;28;20035;-67
2021/09/29 23:50:55;;;;;;;10.98;6.72;;;;;;;;;;5111188;28;20439;-69
2021/09/29 23:53:22;;;;;;;10.02;6.95;;;;;;;;;;5110837;28;20472;-69
2021/09/29 23:55:49;;;;;;;11.80;7.18;;;;;;;;;;5110500;28;20035;-69
